Adventuress — WCX8691 — position and weather

sailwx.info

Track history (hours):
 
Tides and Currents Weather Stations Pressure Air Temp Water Temp Dewpoint Dewpoint Depression Visibility Wind Speed Wind Dir Waves Ship Positions

Adventuress (United States)

Ship's website: http://www.soundexp.org/

More information available from US FCC via Universal Licensing System and Coast Guard Vessel Documentation Center.

Last reported at 2014-Aug-21 19:33 UTC. Time now 2014-Aug-21 20:06 UTC.
Position N 48°31' W 122°38'.

Length 43 m.

Type: Passenger vessel. MMSI: 367323180.

Date/timePositionNaut miles runAvg speedWind from/ knotsBaromVisibWave heightAir tempDewpointWater temp
2014-Aug-21 19:33N 48°31' W 122°38'1 1.1
2014-Aug-21 18:32N 48°31' W 122°36'0 0.0
2014-Aug-21 17:32N 48°31' W 122°36'0 0.0
2014-Aug-21 16:32N 48°31' W 122°36'0 0.0
2014-Aug-21 15:32N 48°31' W 122°36'0 0.0
2014-Aug-21 14:32N 48°31' W 122°36'0 0.0
2014-Aug-21 13:32N 48°31' W 122°36'0 0.0
2014-Aug-21 12:32N 48°31' W 122°36'0 0.0
2014-Aug-21 11:32N 48°31' W 122°36'0 0.0
2014-Aug-21 10:32N 48°31' W 122°36'0 0.0
2014-Aug-21 09:32N 48°31' W 122°36'0 0.0
2014-Aug-21 08:32N 48°31' W 122°36'0 0.0
2014-Aug-21 07:32N 48°31' W 122°36'0 0.0
2014-Aug-21 06:32N 48°31' W 122°36'0 0.0
2014-Aug-21 05:32N 48°31' W 122°36'0 0.0
2014-Aug-21 04:32N 48°31' W 122°36'0 0.0
2014-Aug-21 03:32N 48°31' W 122°36'0 0.0
2014-Aug-21 02:32N 48°31' W 122°36'0 0.0
2014-Aug-21 01:32N 48°31' W 122°36'0 0.0
2014-Aug-21 00:32N 48°31' W 122°36'0 0.0
2014-Aug-20 23:32N 48°31' W 122°36'0 0.0
2014-Aug-20 22:32N 48°31' W 122°36'0 0.0
2014-Aug-20 21:32N 48°31' W 122°36'0 0.0
2014-Aug-20 20:32N 48°31' W 122°36'0 0.0
2014-Aug-20 19:32N 48°31' W 122°36'1 0.6
2014-Aug-20 18:33N 48°31' W 122°35'2 2.2
2014-Aug-20 17:33N 48°33' W 122°34'2 0.8
2014-Aug-20 14:33N 48°35' W 122°33'0 0.0
2014-Aug-20 05:27N 48°35' W 122°33'0 0.0
2014-Aug-20 04:09N 48°35' W 122°33'0 0.0
2014-Aug-20 01:04N 48°35' W 122°33'1 0.7
2014-Aug-19 23:16N 48°36' W 122°35'1 0.5
2014-Aug-19 22:15N 48°35' W 122°34'12 2.9
2014-Aug-19 18:20N 48°36' W 122°51'9 0.4
2014-Aug-18 22:32N 48°31' W 122°40'2 2.2
2014-Aug-18 21:29N 48°31' W 122°36'0 0.0
2014-Aug-18 20:29N 48°31' W 122°36'0 0.0
2014-Aug-18 19:29N 48°31' W 122°36'0 0.0
2014-Aug-18 18:29N 48°31' W 122°36'0 0.0
2014-Aug-18 17:29N 48°31' W 122°36'0 0.0
2014-Aug-18 16:29N 48°31' W 122°36'0 0.0
2014-Aug-18 15:29N 48°31' W 122°36'0 0.0
2014-Aug-18 14:29N 48°31' W 122°36'0 0.0
2014-Aug-18 13:29N 48°31' W 122°36'0 0.0
2014-Aug-18 12:29N 48°31' W 122°36'0 0.0
2014-Aug-18 11:29N 48°31' W 122°36'0 0.0
2014-Aug-18 10:29N 48°31' W 122°36'0 0.0
2014-Aug-18 09:29N 48°31' W 122°36'0 0.0
2014-Aug-18 08:29N 48°31' W 122°36'0 0.0
2014-Aug-18 07:29N 48°31' W 122°36'0 0.0
2014-Aug-18 06:29N 48°31' W 122°36'0 0.0
2014-Aug-18 05:29N 48°31' W 122°36'0 0.0
2014-Aug-18 04:29N 48°31' W 122°36'0 0.0
2014-Aug-18 03:29N 48°31' W 122°36'0 0.0
2014-Aug-18 02:28N 48°31' W 122°36'0 0.0
2014-Aug-18 01:22N 48°31' W 122°36'0 0.0
2014-Aug-18 00:29N 48°31' W 122°36'6 0.1
2014-Aug-16 00:10N 48°31' W 122°46'3 4.1
2014-Aug-15 23:33N 48°31' W 122°42'2 1.6
2014-Aug-15 22:21N 48°31' W 122°39'2 3.1
2014-Aug-15 21:33N 48°31' W 122°36'1 0.7
2014-Aug-15 20:33N 48°31' W 122°36'0 0.0
2014-Aug-15 19:33N 48°31' W 122°36'0 0.0
2014-Aug-15 18:33N 48°31' W 122°36'0 0.0
2014-Aug-15 17:33N 48°31' W 122°36'0 0.0
2014-Aug-15 16:33N 48°31' W 122°36'0 0.0
2014-Aug-15 15:33N 48°31' W 122°36'0 0.0
2014-Aug-15 14:33N 48°31' W 122°36'0 0.0
2014-Aug-15 13:33N 48°31' W 122°36'0 0.0
2014-Aug-15 12:33N 48°31' W 122°36'0 0.0
2014-Aug-15 11:27N 48°31' W 122°36'0 0.0
2014-Aug-15 10:33N 48°31' W 122°36'0 0.0
2014-Aug-15 09:33N 48°31' W 122°36'0 0.0
2014-Aug-15 08:33N 48°31' W 122°36'0 0.0
2014-Aug-15 07:33N 48°31' W 122°36'0 0.0
2014-Aug-15 06:33N 48°31' W 122°36'0 0.0
2014-Aug-15 05:33N 48°31' W 122°36'0 0.0
2014-Aug-15 04:33N 48°31' W 122°36'0 0.0
2014-Aug-15 03:33N 48°31' W 122°36'0 0.0
2014-Aug-15 02:33N 48°31' W 122°36'0 0.0
2014-Aug-15 01:27N 48°31' W 122°36'0 0.0
2014-Aug-15 00:33N 48°31' W 122°36'0 0.0
2014-Aug-14 23:33N 48°31' W 122°36'0 0.0
2014-Aug-14 22:33N 48°31' W 122°36'0 0.0
2014-Aug-14 21:27N 48°31' W 122°36'0 0.0
2014-Aug-14 20:33N 48°31' W 122°36'0 0.0
2014-Aug-14 19:33N 48°31' W 122°36'0 0.0
2014-Aug-14 18:33N 48°31' W 122°36'0 0.0
2014-Aug-14 17:33N 48°31' W 122°36'0 0.0
2014-Aug-14 16:33N 48°31' W 122°36'0 0.0
2014-Aug-14 15:33N 48°31' W 122°36'0 0.0
2014-Aug-14 14:33N 48°31' W 122°36'0 0.0
2014-Aug-14 13:33N 48°31' W 122°36'0 0.0
2014-Aug-14 12:33N 48°31' W 122°36'0 0.0
2014-Aug-14 11:27N 48°31' W 122°36'0 0.0
2014-Aug-14 10:33N 48°31' W 122°36'0 0.0
2014-Aug-14 09:27N 48°31' W 122°36'0 0.0
2014-Aug-14 08:33N 48°31' W 122°36'0 0.0
2014-Aug-14 07:27N 48°31' W 122°36'0 0.0
2014-Aug-14 06:33N 48°31' W 122°36'0 0.0
2014-Aug-14 05:33N 48°31' W 122°36'0 0.0
2014-Aug-14 04:33N 48°31' W 122°36'0 0.0
2014-Aug-14 03:33N 48°31' W 122°36'0 0.0
2014-Aug-14 02:33N 48°31' W 122°36'0 0.0
2014-Aug-14 01:33N 48°31' W 122°36'0 0.0
2014-Aug-14 00:33N 48°31' W 122°36'0 0.0
2014-Aug-13 23:33N 48°31' W 122°36'1 0.8
2014-Aug-13 22:33N 48°31' W 122°35'1 0.7
2014-Aug-13 21:33N 48°31' W 122°34'1 1.3
2014-Aug-13 20:31N 48°33' W 122°34'2 1.5
2014-Aug-13 19:24N 48°34' W 122°36'2 0.3
2014-Aug-13 12:27N 48°35' W 122°33'0 0.0
2014-Aug-13 10:03N 48°35' W 122°33'0 0.0
2014-Aug-13 08:15N 48°35' W 122°33'5 0.4
2014-Aug-12 22:10N 48°34' W 122°40'  
Track history (hours):
 
Tides and Currents Weather Stations Pressure Air Temp Water Temp Dewpoint Dewpoint Depression Visibility Wind Speed Wind Dir Waves Ship Positions

Adventuress (United States)

Ship's website: http://www.soundexp.org/

More information available from US FCC via Universal Licensing System and Coast Guard Vessel Documentation Center.

Last reported at 2014-Aug-21 19:33 UTC. Time now 2014-Aug-21 20:06 UTC.
Position N 48°31' W 122°38'.

Length 43 m.

Type: Passenger vessel. MMSI: 367323180.

Date/timePositionNaut miles runAvg speedWind from/ knotsBaromVisibWave heightAir tempDewpointWater temp
2014-Aug-21 19:33N 48°31' W 122°38'1 1.1
2014-Aug-21 18:32N 48°31' W 122°36'0 0.0
2014-Aug-21 17:32N 48°31' W 122°36'0 0.0
2014-Aug-21 16:32N 48°31' W 122°36'0 0.0
2014-Aug-21 15:32N 48°31' W 122°36'0 0.0
2014-Aug-21 14:32N 48°31' W 122°36'0 0.0
2014-Aug-21 13:32N 48°31' W 122°36'0 0.0
2014-Aug-21 12:32N 48°31' W 122°36'0 0.0
2014-Aug-21 11:32N 48°31' W 122°36'0 0.0
2014-Aug-21 10:32N 48°31' W 122°36'0 0.0
2014-Aug-21 09:32N 48°31' W 122°36'0 0.0
2014-Aug-21 08:32N 48°31' W 122°36'0 0.0
2014-Aug-21 07:32N 48°31' W 122°36'0 0.0
2014-Aug-21 06:32N 48°31' W 122°36'0 0.0
2014-Aug-21 05:32N 48°31' W 122°36'0 0.0
2014-Aug-21 04:32N 48°31' W 122°36'0 0.0
2014-Aug-21 03:32N 48°31' W 122°36'0 0.0
2014-Aug-21 02:32N 48°31' W 122°36'0 0.0
2014-Aug-21 01:32N 48°31' W 122°36'0 0.0
2014-Aug-21 00:32N 48°31' W 122°36'0 0.0
2014-Aug-20 23:32N 48°31' W 122°36'0 0.0
2014-Aug-20 22:32N 48°31' W 122°36'0 0.0
2014-Aug-20 21:32N 48°31' W 122°36'0 0.0
2014-Aug-20 20:32N 48°31' W 122°36'0 0.0
2014-Aug-20 19:32N 48°31' W 122°36'1 0.6
2014-Aug-20 18:33N 48°31' W 122°35'2 2.2
2014-Aug-20 17:33N 48°33' W 122°34'2 0.8
2014-Aug-20 14:33N 48°35' W 122°33'0 0.0
2014-Aug-20 05:27N 48°35' W 122°33'0 0.0
2014-Aug-20 04:09N 48°35' W 122°33'0 0.0
2014-Aug-20 01:04N 48°35' W 122°33'1 0.7
2014-Aug-19 23:16N 48°36' W 122°35'1 0.5
2014-Aug-19 22:15N 48°35' W 122°34'12 2.9
2014-Aug-19 18:20N 48°36' W 122°51'9 0.4
2014-Aug-18 22:32N 48°31' W 122°40'2 2.2
2014-Aug-18 21:29N 48°31' W 122°36'0 0.0
2014-Aug-18 20:29N 48°31' W 122°36'0 0.0
2014-Aug-18 19:29N 48°31' W 122°36'0 0.0
2014-Aug-18 18:29N 48°31' W 122°36'0 0.0
2014-Aug-18 17:29N 48°31' W 122°36'0 0.0
2014-Aug-18 16:29N 48°31' W 122°36'0 0.0
2014-Aug-18 15:29N 48°31' W 122°36'0 0.0
2014-Aug-18 14:29N 48°31' W 122°36'0 0.0
2014-Aug-18 13:29N 48°31' W 122°36'0 0.0
2014-Aug-18 12:29N 48°31' W 122°36'0 0.0
2014-Aug-18 11:29N 48°31' W 122°36'0 0.0
2014-Aug-18 10:29N 48°31' W 122°36'0 0.0
2014-Aug-18 09:29N 48°31' W 122°36'0 0.0
2014-Aug-18 08:29N 48°31' W 122°36'0 0.0
2014-Aug-18 07:29N 48°31' W 122°36'0 0.0
2014-Aug-18 06:29N 48°31' W 122°36'0 0.0
2014-Aug-18 05:29N 48°31' W 122°36'0 0.0
2014-Aug-18 04:29N 48°31' W 122°36'0 0.0
2014-Aug-18 03:29N 48°31' W 122°36'0 0.0
2014-Aug-18 02:28N 48°31' W 122°36'0 0.0
2014-Aug-18 01:22N 48°31' W 122°36'0 0.0
2014-Aug-18 00:29N 48°31' W 122°36'6 0.1
2014-Aug-16 00:10N 48°31' W 122°46'3 4.1
2014-Aug-15 23:33N 48°31' W 122°42'2 1.6
2014-Aug-15 22:21N 48°31' W 122°39'2 3.1
2014-Aug-15 21:33N 48°31' W 122°36'1 0.7
2014-Aug-15 20:33N 48°31' W 122°36'0 0.0
2014-Aug-15 19:33N 48°31' W 122°36'0 0.0
2014-Aug-15 18:33N 48°31' W 122°36'0 0.0
2014-Aug-15 17:33N 48°31' W 122°36'0 0.0
2014-Aug-15 16:33N 48°31' W 122°36'0 0.0
2014-Aug-15 15:33N 48°31' W 122°36'0 0.0
2014-Aug-15 14:33N 48°31' W 122°36'0 0.0
2014-Aug-15 13:33N 48°31' W 122°36'0 0.0
2014-Aug-15 12:33N 48°31' W 122°36'0 0.0
2014-Aug-15 11:27N 48°31' W 122°36'0 0.0
2014-Aug-15 10:33N 48°31' W 122°36'0 0.0
2014-Aug-15 09:33N 48°31' W 122°36'0 0.0
2014-Aug-15 08:33N 48°31' W 122°36'0 0.0
2014-Aug-15 07:33N 48°31' W 122°36'0 0.0
2014-Aug-15 06:33N 48°31' W 122°36'0 0.0
2014-Aug-15 05:33N 48°31' W 122°36'0 0.0
2014-Aug-15 04:33N 48°31' W 122°36'0 0.0
2014-Aug-15 03:33N 48°31' W 122°36'0 0.0
2014-Aug-15 02:33N 48°31' W 122°36'0 0.0
2014-Aug-15 01:27N 48°31' W 122°36'0 0.0
2014-Aug-15 00:33N 48°31' W 122°36'0 0.0
2014-Aug-14 23:33N 48°31' W 122°36'0 0.0
2014-Aug-14 22:33N 48°31' W 122°36'0 0.0
2014-Aug-14 21:27N 48°31' W 122°36'0 0.0
2014-Aug-14 20:33N 48°31' W 122°36'0 0.0
2014-Aug-14 19:33N 48°31' W 122°36'0 0.0
2014-Aug-14 18:33N 48°31' W 122°36'0 0.0
2014-Aug-14 17:33N 48°31' W 122°36'0 0.0
2014-Aug-14 16:33N 48°31' W 122°36'0 0.0
2014-Aug-14 15:33N 48°31' W 122°36'0 0.0
2014-Aug-14 14:33N 48°31' W 122°36'0 0.0
2014-Aug-14 13:33N 48°31' W 122°36'0 0.0
2014-Aug-14 12:33N 48°31' W 122°36'0 0.0
2014-Aug-14 11:27N 48°31' W 122°36'0 0.0
2014-Aug-14 10:33N 48°31' W 122°36'0 0.0
2014-Aug-14 09:27N 48°31' W 122°36'0 0.0
2014-Aug-14 08:33N 48°31' W 122°36'0 0.0
2014-Aug-14 07:27N 48°31' W 122°36'0 0.0
2014-Aug-14 06:33N 48°31' W 122°36'0 0.0
2014-Aug-14 05:33N 48°31' W 122°36'0 0.0
2014-Aug-14 04:33N 48°31' W 122°36'0 0.0
2014-Aug-14 03:33N 48°31' W 122°36'0 0.0
2014-Aug-14 02:33N 48°31' W 122°36'0 0.0
2014-Aug-14 01:33N 48°31' W 122°36'0 0.0
2014-Aug-14 00:33N 48°31' W 122°36'0 0.0
2014-Aug-13 23:33N 48°31' W 122°36'1 0.8
2014-Aug-13 22:33N 48°31' W 122°35'1 0.7
2014-Aug-13 21:33N 48°31' W 122°34'1 1.3
2014-Aug-13 20:31N 48°33' W 122°34'2 1.5
2014-Aug-13 19:24N 48°34' W 122°36'2 0.3
2014-Aug-13 12:27N 48°35' W 122°33'0 0.0
2014-Aug-13 10:03N 48°35' W 122°33'0 0.0
2014-Aug-13 08:15N 48°35' W 122°33'5 0.4
2014-Aug-12 22:10N 48°34' W 122°40'  

Dump ship's entire track history